Time;durP1;ratioP1;P1;durP2;ratioP2;P2;SDS_P1;SDS_P2;PMS_P1;PMS_P2;Temp;Humidity;BMP_temperature;BMP_pressure;BME280_temperature;BME280_humidity;BME280_pressure;Samples;Min_cycle;Max_cycle;Signal;HPM_P1;HPM_P2
2022/06/26 00:02:24;;;;;;;0.05;0.05;;;;;;;17.93;100.00;101229.97;10497932;28;20386;-72
2022/06/26 00:07:24;;;;;;;0.10;0.10;;;;;;;17.83;100.00;101222.25;10497381;28;20020;-71
2022/06/26 00:12:25;;;;;;;0.10;0.10;;;;;;;17.60;100.00;101213.56;10497834;28;20116;-72
2022/06/26 00:17:25;;;;;;;0.10;0.10;;;;;;;17.38;100.00;101215.44;10496613;28;20024;-72
2022/06/26 00:22:26;;;;;;;0.00;0.00;;;;;;;17.15;100.00;101216.50;10468950;28;20291;-72
2022/06/26 00:27:27;;;;;;;0.10;0.10;;;;;;;17.03;100.00;101215.34;10446647;22;20065;-75
2022/06/26 00:32:27;;;;;;;0.03;0.03;;;;;;;16.93;100.00;101212.16;10427433;28;20029;-75
2022/06/26 00:37:27;;;;;;;0.10;0.10;;;;;;;16.81;100.00;101219.84;10414291;28;20021;-75
2022/06/26 00:42:28;;;;;;;0.00;0.00;;;;;;;16.75;100.00;101210.69;10414928;28;20075;-75
2022/06/26 00:47:30;;;;;;;0.10;0.10;;;;;;;16.75;100.00;101208.00;10413931;28;20029;-75
2022/06/26 00:52:33;;;;;;;0.10;0.10;;;;;;;16.75;100.00;101209.84;10424826;28;20263;-76
2022/06/26 00:57:35;;;;;;;0.10;0.10;;;;;;;16.75;100.00;101205.31;10455747;28;20122;-75
2022/06/26 01:02:35;;;;;;;0.10;0.10;;;;;;;16.86;100.00;101209.38;10454441;28;20107;-76
2022/06/26 01:07:36;;;;;;;0.10;0.10;;;;;;;16.88;100.00;101211.88;10451395;28;20116;-75
2022/06/26 01:12:36;;;;;;;0.00;0.00;;;;;;;16.83;100.00;101217.00;10412946;28;20029;-76
2022/06/26 01:17:36;;;;;;;0.10;0.10;;;;;;;16.77;100.00;101221.28;10412546;28;20404;-75
2022/06/26 01:22:37;;;;;;;0.10;0.10;;;;;;;16.70;100.00;101218.50;10431493;28;20377;-76
2022/06/26 01:27:42;;;;;;;0.00;0.00;;;;;;;16.59;100.00;101221.66;10452443;28;20491;-73
2022/06/26 01:32:42;;;;;;;0.10;0.10;;;;;;;16.42;100.00;101226.44;10453421;28;20452;-72
2022/06/26 01:37:43;;;;;;;0.10;0.10;;;;;;;16.40;100.00;101216.88;10465295;28;20119;-72
2022/06/26 01:42:43;;;;;;;0.10;0.10;;;;;;;16.56;100.00;101218.53;10452725;28;20025;-72
2022/06/26 01:47:44;;;;;;;0.10;0.10;;;;;;;16.60;100.00;101207.19;10452010;28;20028;-72
2022/06/26 01:52:44;;;;;;;0.10;0.10;;;;;;;16.47;100.00;101212.44;10421697;28;20372;-72
2022/06/26 01:57:45;;;;;;;0.10;0.10;;;;;;;16.34;100.00;101213.09;10410506;28;20034;-73
2022/06/26 02:02:45;;;;;;;0.10;0.10;;;;;;;16.35;100.00;101225.53;10410716;28;20080;-73
2022/06/26 02:07:45;;;;;;;0.10;0.10;;;;;;;16.47;100.00;101209.75;10410034;28;20573;-74
2022/06/26 02:18:04;;;;;;;0.00;0.00;;;;;;;16.35;100.00;101209.41;10409937;28;20025;-73
2022/06/26 02:23:05;;;;;;;0.03;0.03;;;;;;;16.11;100.00;101196.25;10426941;28;20026;-74
2022/06/26 02:28:06;;;;;;;0.10;0.10;;;;;;;16.04;100.00;101205.06;10450866;28;20559;-74
2022/06/26 02:33:06;;;;;;;0.10;0.10;;;;;;;15.89;100.00;101206.91;10451559;28;20282;-73
2022/06/26 02:38:06;;;;;;;0.10;0.10;;;;;;;15.82;100.00;101217.56;10468801;28;20031;-73
2022/06/26 02:43:07;;;;;;;0.10;0.10;;;;;;;15.88;100.00;101205.22;10459691;28;20029;-72
2022/06/26 02:48:08;;;;;;;0.10;0.10;;;;;;;16.01;100.00;101212.66;10458853;28;20021;-73
2022/06/26 02:53:09;;;;;;;0.00;0.00;;;;;;;16.04;100.00;101207.75;10473335;28;20017;-73
2022/06/26 02:58:09;;;;;;;0.10;0.10;;;;;;;16.16;100.00;101216.16;10458331;28;20021;-74
2022/06/26 03:03:10;;;;;;;0.10;0.10;;;;;;;16.28;100.00;101216.53;10458774;28;20165;-73
2022/06/26 03:08:10;;;;;;;0.10;0.10;;;;;;;16.30;100.00;101203.75;10458004;28;20387;-73
2022/06/26 03:13:12;;;;;;;0.10;0.10;;;;;;;16.19;100.00;101209.59;10458574;28;20090;-72
2022/06/26 03:18:12;;;;;;;0.10;0.10;;;;;;;16.10;100.00;101210.72;10454869;28;20371;-73
2022/06/26 03:23:13;;;;;;;0.10;0.10;;;;;;;16.14;100.00;101206.63;10423451;28;20105;-73
2022/06/26 03:28:13;;;;;;;0.10;0.10;;;;;;;16.23;100.00;101203.66;10415975;28;20396;-73
2022/06/26 03:33:13;;;;;;;0.00;0.00;;;;;;;16.28;100.00;101208.47;10416599;28;20021;-73
2022/06/26 03:38:15;;;;;;;0.10;0.10;;;;;;;16.49;100.00;101211.22;10416174;28;20029;-73
2022/06/26 03:43:15;;;;;;;0.10;0.10;;;;;;;16.77;100.00;101210.53;10416037;28;20112;-73
2022/06/26 03:48:15;;;;;;;0.10;0.10;;;;;;;17.09;100.00;101214.56;10414861;28;20032;-72
2022/06/26 03:53:16;;;;;;;0.10;0.10;;;;;;;17.47;100.00;101216.97;10415101;28;20104;-73
2022/06/26 03:58:17;;;;;;;0.10;0.10;;;;;;;17.90;100.00;101224.97;10415087;28;20087;-74
2022/06/26 04:03:17;;;;;;;0.10;0.10;;;;;;;18.42;100.00;101220.91;10415476;28;20430;-74
2022/06/26 04:08:19;;;;;;;0.10;0.10;;;;;;;19.17;100.00;101220.94;10414232;28;20383;-74
2022/06/26 04:13:19;;;;;;;0.00;0.00;;;;;;;19.74;100.00;101227.56;10430981;28;20380;-74
2022/06/26 04:18:20;;;;;;;0.10;0.10;;;;;;;20.55;100.00;101229.03;10414462;28;20032;-74
2022/06/26 04:23:20;;;;;;;0.10;0.10;;;;;;;21.39;100.00;101221.66;10414298;28;20032;-74
2022/06/26 04:28:20;;;;;;;0.00;0.00;;;;;;;22.84;100.00;101226.53;10413998;28;20139;-74
2022/06/26 04:33:20;;;;;;;0.00;0.00;;;;;;;23.47;100.00;101219.72;10414217;28;20423;-74
2022/06/26 04:38:21;;;;;;;0.00;0.00;;;;;;;23.21;100.00;101226.41;10413457;28;20064;-75
2022/06/26 04:43:21;;;;;;;0.10;0.10;;;;;;;23.78;100.00;101232.16;10413784;28;20031;-74
2022/06/26 04:48:22;;;;;;;0.00;0.00;;;;;;;23.59;100.00;101231.44;10413127;28;20691;-75
2022/06/26 04:53:22;;;;;;;0.00;0.00;;;;;;;24.04;100.00;101238.19;10439770;28;20029;-74
2022/06/26 04:58:22;;;;;;;0.10;0.10;;;;;;;25.36;100.00;101231.75;10453884;28;20322;-73
2022/06/26 05:03:22;;;;;;;0.00;0.00;;;;;;;26.70;93.67;101237.19;10453229;28;20392;-74
2022/06/26 05:08:23;;;;;;;0.10;0.10;;;;;;;27.94;88.02;101236.06;10453336;28;20021;-73
2022/06/26 05:13:23;;;;;;;0.10;0.10;;;;;;;28.83;82.43;101236.97;10453915;28;20021;-73
2022/06/26 05:18:24;;;;;;;0.10;0.10;;;;;;;27.29;85.96;101235.31;10453444;28;20033;-73
2022/06/26 05:23:24;;;;;;;0.10;0.10;;;;;;;27.44;81.36;101247.47;10459641;28;20499;-73
2022/06/26 05:28:25;;;;;;;0.00;0.00;;;;;;;28.11;77.46;101241.34;10453405;28;20029;-74
2022/06/26 05:33:25;;;;;;;0.10;0.10;;;;;;;27.51;81.84;101239.84;10453142;28;20454;-73
2022/06/26 05:38:25;;;;;;;0.10;0.10;;;;;;;26.47;83.96;101230.91;10452615;28;20031;-74
2022/06/26 05:43:26;;;;;;;0.10;0.10;;;;;;;26.06;88.39;101232.28;10468108;28;20029;-73
2022/06/26 05:48:26;;;;;;;0.00;0.00;;;;;;;25.37;88.83;101229.88;10452215;28;20033;-74
2022/06/26 05:53:27;;;;;;;0.10;0.10;;;;;;;25.11;92.73;101240.31;10442930;28;20083;-73
2022/06/26 05:58:27;;;;;;;0.03;0.03;;;;;;;24.98;93.42;101238.72;10451633;28;20024;-74
2022/06/26 06:03:27;;;;;;;0.10;0.10;;;;;;;24.75;94.05;101242.38;10451937;28;20083;-74
2022/06/26 06:08:28;;;;;;;0.07;0.07;;;;;;;25.15;91.14;101249.69;10451435;28;20021;-74
2022/06/26 06:13:28;;;;;;;0.10;0.10;;;;;;;26.82;85.11;101249.63;10466883;28;20350;-72
2022/06/26 06:18:29;;;;;;;0.10;0.10;;;;;;;28.50;77.63;101251.13;10450068;28;20365;-73
2022/06/26 06:23:30;;;;;;;0.10;0.10;;;;;;;29.18;73.83;101254.59;10430951;28;20508;-72
2022/06/26 06:28:31;;;;;;;0.10;0.10;;;;;;;30.13;69.58;101258.59;10457095;22;20041;-72
2022/06/26 06:33:31;;;;;;;0.10;0.10;;;;;;;30.17;71.92;101274.25;10456819;28;20029;-72
2022/06/26 06:38:32;;;;;;;0.10;0.10;;;;;;;30.02;70.03;101279.81;10456968;28;20033;-72
2022/06/26 06:43:32;;;;;;;0.10;0.10;;;;;;;30.87;71.28;101281.69;10457749;28;20031;-72
2022/06/26 06:48:34;;;;;;;0.10;0.10;;;;;;;31.47;66.81;101273.28;10456115;28;20029;-72
2022/06/26 06:53:34;;;;;;;0.10;0.10;;;;;;;31.16;64.96;101273.50;10457965;28;20039;-72
2022/06/26 06:58:34;;;;;;;;;;;;;;;32.33;65.76;101281.78;10457278;28;20050;-72
2022/06/26 07:03:35;;;;;;;0.10;0.10;;;;;;;33.62;60.88;101282.38;10458176;28;19913;-72
2022/06/26 07:08:35;;;;;;;0.10;0.10;;;;;;;34.45;52.41;101288.00;10459353;28;20033;-72
2022/06/26 07:13:35;;;;;;;0.10;0.10;;;;;;;35.12;51.51;101285.41;10460444;28;20025;-73
2022/06/26 07:18:36;;;;;;;0.10;0.10;;;;;;;35.58;44.52;101280.69;10459677;28;20044;-73
2022/06/26 07:23:36;;;;;;;0.10;0.10;;;;;;;34.96;45.82;101294.34;10460840;28;20067;-73
2022/06/26 07:28:37;;;;;;;0.10;0.10;;;;;;;34.79;45.33;101297.78;10479949;28;20037;-72
2022/06/26 07:38:56;;;;;;;0.10;0.10;;;;;;;33.74;45.57;101295.69;10509640;28;20057;-72
2022/06/26 07:43:56;;;;;;;0.10;0.10;;;;;;;33.52;47.35;101308.25;10484992;28;20057;-72
2022/06/26 07:48:57;;;;;;;0.10;0.10;;;;;;;31.98;48.69;101317.72;10465291;28;20036;-72
2022/06/26 07:53:57;;;;;;;0.10;0.10;;;;;;;30.79;52.08;101315.28;10464140;28;20017;-72
2022/06/26 07:58:58;;;;;;;0.10;0.10;;;;;;;30.28;56.14;101321.75;10454810;28;20045;-72
2022/06/26 08:03:58;;;;;;;;;;;;;;;31.02;57.43;101328.34;10462605;28;20167;-72
2022/06/26 08:08:59;;;;;;;0.10;0.10;;;;;;;32.06;49.03;101330.03;10463082;28;19912;-72
2022/06/26 08:13:59;;;;;;;;;;;;;;;32.55;49.46;101336.38;10462863;28;20021;-72
2022/06/26 08:18:59;;;;;;;0.10;0.10;;;;;;;32.80;49.12;101336.06;10463233;28;19915;-72
2022/06/26 08:23:59;;;;;;;0.10;0.10;;;;;;;33.21;47.88;101346.53;10462353;28;20017;-72
2022/06/26 08:29:00;;;;;;;0.10;0.10;;;;;;;33.03;47.19;101359.22;10462222;28;20116;-72
2022/06/26 08:34:00;;;;;;;0.10;0.10;;;;;;;32.98;49.98;101352.91;10463454;28;20031;-73
2022/06/26 08:39:01;;;;;;;0.10;0.10;;;;;;;33.22;47.24;101350.94;10461671;28;20040;-72
2022/06/26 08:44:02;;;;;;;0.10;0.10;;;;;;;33.16;47.62;101365.91;10460292;28;20075;-72
2022/06/26 08:49:08;;;;;;;0.10;0.10;;;;;;;32.93;50.13;101359.34;10462481;28;20538;-72
2022/06/26 08:54:09;;;;;;;0.10;0.10;;;;;;;32.62;47.76;101376.28;10461716;28;20029;-72
2022/06/26 08:59:12;;;;;;;0.10;0.10;;;;;;;32.33;50.68;101376.31;10454853;28;20032;-72
2022/06/26 09:04:13;;;;;;;0.10;0.10;;;;;;;31.69;53.69;101392.03;10461686;28;20021;-72
2022/06/26 09:09:23;;;;;;;0.00;0.00;;;;;;;31.70;54.52;101390.09;10461832;28;20163;-72
2022/06/26 09:14:25;;;;;;;0.00;0.00;;;;;;;32.04;53.15;101386.53;10461997;28;20093;-72
2022/06/26 09:19:36;;;;;;;0.10;0.10;;;;;;;32.55;52.88;101402.56;10461928;28;20032;-72
2022/06/26 09:24:38;;;;;;;0.10;0.10;;;;;;;31.93;53.38;101400.41;10459101;28;20029;-72
2022/06/26 09:29:40;;;;;;;0.00;0.00;;;;;;;31.49;54.69;101408.72;10458511;28;20039;-73
2022/06/26 09:34:49;;;;;;;0.10;0.10;;;;;;;30.93;56.15;101423.56;10458941;28;20021;-73
2022/06/26 09:40:00;;;;;;;0.10;0.10;;;;;;;30.52;57.79;101434.69;10460758;28;20036;-72
2022/06/26 09:45:01;;;;;;;0.10;0.10;;;;;;;30.12;58.00;101446.50;10458406;28;20029;-72
2022/06/26 09:50:06;;;;;;;0.10;0.10;;;;;;;30.15;58.39;101444.03;10460734;28;20036;-73
2022/06/26 09:55:07;;;;;;;0.10;0.10;;;;;;;30.30;57.13;101453.41;10459461;28;20044;-73
2022/06/26 10:00:09;;;;;;;0.10;0.10;;;;;;;30.12;57.88;101460.25;10484580;28;20047;-73
2022/06/26 10:10:33;;;;;;;0.10;0.10;;;;;;;30.63;57.29;101469.28;10502015;28;20033;-73
2022/06/26 10:15:57;;;;;;;0.05;0.05;;;;;;;30.06;56.83;101473.16;10501256;28;20092;-73
2022/06/26 10:21:08;;;;;;;0.10;0.10;;;;;;;29.77;59.36;101484.66;10499917;28;20064;-73
2022/06/26 10:26:16;;;;;;;0.10;0.10;;;;;;;29.79;62.50;101498.13;10492820;28;20029;-73
2022/06/26 10:31:17;;;;;;;0.10;0.10;;;;;;;30.32;61.63;101496.00;10467554;28;20573;-73
2022/06/26 10:36:24;;;;;;;0.10;0.10;;;;;;;30.51;58.92;101504.47;10459150;28;20029;-73
2022/06/26 10:46:49;;;;;;;0.00;0.00;;;;;;;30.93;56.37;101502.53;10459456;28;20033;-73
2022/06/26 10:51:49;;;;;;;0.10;0.10;;;;;;;31.09;57.21;101504.91;10459921;28;20421;-73
2022/06/26 10:57:01;;;;;;;0.10;0.10;;;;;;;30.10;59.33;101504.47;10450340;28;20035;-73
2022/06/26 11:02:02;;;;;;;0.10;0.10;;;;;;;29.90;64.62;101499.78;10497811;28;20032;-73
2022/06/26 11:07:03;;;;;;;0.10;0.10;;;;;;;29.29;66.18;101505.91;10508405;28;20029;-73
2022/06/26 11:12:03;;;;;;;0.10;0.10;;;;;;;28.72;65.97;101508.59;10507481;28;20111;-73
2022/06/26 11:17:05;;;;;;;0.10;0.10;;;;;;;29.02;67.57;101514.28;10506028;28;20055;-72
2022/06/26 11:22:06;;;;;;;0.10;0.10;;;;;;;29.17;65.46;101510.78;10506754;28;20104;-72
2022/06/26 11:27:08;;;;;;;0.10;0.10;;;;;;;29.04;66.56;101525.00;10491478;28;20399;-73
2022/06/26 11:32:09;;;;;;;0.10;0.10;;;;;;;28.63;66.42;101519.22;10475489;28;20028;-73
2022/06/26 11:37:10;;;;;;;0.10;0.10;;;;;;;28.98;67.96;101510.41;10466025;28;20024;-73
2022/06/26 11:42:18;;;;;;;0.10;0.10;;;;;;;29.23;63.61;101506.13;10466135;28;20021;-72
2022/06/26 11:47:20;;;;;;;0.10;0.10;;;;;;;28.62;65.57;101517.56;10465027;28;20031;-73
2022/06/26 11:52:20;;;;;;;0.10;0.10;;;;;;;28.28;65.76;101517.81;10466199;28;20044;-73
2022/06/26 11:57:21;;;;;;;0.00;0.00;;;;;;;27.88;70.95;101524.56;10458056;28;20040;-72
2022/06/26 12:02:24;;;;;;;0.10;0.10;;;;;;;27.71;72.14;101523.81;10465129;28;20487;-72
2022/06/26 12:07:26;;;;;;;0.10;0.10;;;;;;;27.06;72.30;101529.00;10464955;28;20483;-73
2022/06/26 12:12:26;;;;;;;0.00;0.00;;;;;;;26.40;78.51;101542.44;10464505;28;20092;-72
2022/06/26 12:17:28;;;;;;;0.10;0.10;;;;;;;25.64;81.04;101543.75;10463597;28;20557;-73
2022/06/26 12:22:31;;;;;;;0.10;0.10;;;;;;;25.32;82.99;101548.81;10464065;28;20020;-73
2022/06/26 12:27:44;;;;;;;0.10;0.10;;;;;;;24.95;84.83;101543.59;10472021;22;20132;-73
2022/06/26 12:32:45;;;;;;;0.00;0.00;;;;;;;24.95;81.66;101552.59;10453665;28;20025;-73
2022/06/26 12:37:45;;;;;;;0.10;0.10;;;;;;;25.81;78.69;101565.63;10454584;28;20024;-71
2022/06/26 12:42:46;;;;;;;0.10;0.10;;;;;;;25.74;78.14;101566.59;10454248;28;20048;-73
2022/06/26 12:47:48;;;;;;;0.10;0.10;;;;;;;25.60;79.35;101567.97;10453781;28;20067;-73
2022/06/26 12:52:48;;;;;;;0.10;0.10;;;;;;;25.36;79.98;101564.44;10454271;28;20024;-73
2022/06/26 12:57:48;;;;;;;0.00;0.00;;;;;;;24.97;81.93;101566.81;10451463;28;20203;-73
2022/06/26 13:02:49;;;;;;;0.00;0.00;;;;;;;24.32;85.93;101567.66;10452464;28;20060;-73
2022/06/26 13:07:49;;;;;;;0.00;0.00;;;;;;;23.86;87.85;101573.75;10452907;28;20060;-72
2022/06/26 13:12:49;;;;;;;0.00;0.00;;;;;;;23.57;89.61;101559.03;10453289;28;20535;-73
2022/06/26 13:17:50;;;;;;;0.10;0.10;;;;;;;23.44;90.59;101562.72;10452342;28;20135;-73
2022/06/26 13:22:50;;;;;;;0.00;0.00;;;;;;;23.43;90.75;101563.78;10452076;28;20298;-73
2022/06/26 13:27:51;;;;;;;0.00;0.00;;;;;;;23.72;89.18;101567.66;10451530;28;20110;-72
2022/06/26 13:32:52;;;;;;;0.00;0.00;;;;;;;24.09;87.26;101559.41;10451353;28;20545;-72
2022/06/26 13:37:52;;;;;;;0.00;0.00;;;;;;;24.18;85.98;101558.03;10450609;28;20025;-72
2022/06/26 13:42:52;;;;;;;0.00;0.00;;;;;;;24.05;85.01;101569.91;10450139;28;20061;-73
2022/06/26 13:47:53;;;;;;;0.00;0.00;;;;;;;24.58;84.40;101558.28;10449150;28;20037;-73
2022/06/26 13:52:53;;;;;;;0.00;0.00;;;;;;;24.84;84.62;101550.69;10452743;28;20108;-73
2022/06/26 13:57:54;;;;;;;0.00;0.00;;;;;;;24.74;81.11;101550.47;10442263;28;20029;-73
2022/06/26 14:02:54;;;;;;;0.00;0.00;;;;;;;24.81;83.79;101568.38;10451502;28;20035;-73
2022/06/26 14:07:54;;;;;;;0.10;0.10;;;;;;;25.29;78.31;101572.75;10451005;28;20031;-73
2022/06/26 14:12:55;;;;;;;0.00;0.00;;;;;;;25.27;78.32;101574.06;10451224;28;20324;-72
2022/06/26 14:17:55;;;;;;;0.00;0.00;;;;;;;25.07;80.30;101579.84;10449220;28;20021;-72
2022/06/26 14:28:15;;;;;;;0.00;0.00;;;;;;;25.26;75.15;101588.75;10449868;28;20033;-73
2022/06/26 14:33:16;;;;;;;0.00;0.00;;;;;;;25.26;76.29;101580.59;10449485;28;20027;-73
2022/06/26 14:38:18;;;;;;;0.00;0.00;;;;;;;24.95;73.50;101587.19;10448932;28;20025;-73
2022/06/26 14:43:18;;;;;;;0.00;0.00;;;;;;;24.93;73.19;101597.50;10450346;28;20025;-73
2022/06/26 14:48:18;;;;;;;0.00;0.00;;;;;;;25.05;73.35;101598.34;10450142;28;20395;-73
2022/06/26 14:53:20;;;;;;;0.00;0.00;;;;;;;25.07;73.17;101596.19;10450479;28;20498;-73
2022/06/26 14:58:24;;;;;;;0.00;0.00;;;;;;;24.65;74.22;101590.03;10449229;28;20267;-73
2022/06/26 15:03:24;;;;;;;0.00;0.00;;;;;;;24.37;75.46;101600.44;10450048;28;20040;-73
2022/06/26 15:08:25;;;;;;;0.00;0.00;;;;;;;24.15;77.15;101599.31;10449393;28;20025;-73
2022/06/26 15:13:25;;;;;;;0.00;0.00;;;;;;;24.01;77.03;101590.50;10449784;28;20272;-73
2022/06/26 15:18:26;;;;;;;0.00;0.00;;;;;;;24.08;76.08;101583.06;10449707;28;20307;-73
2022/06/26 15:23:26;;;;;;;0.10;0.10;;;;;;;24.50;76.16;101572.22;10448326;28;20029;-73
2022/06/26 15:28:26;;;;;;;0.00;0.00;;;;;;;24.68;74.81;101562.31;10441206;28;20182;-73
2022/06/26 15:33:27;;;;;;;0.00;0.00;;;;;;;24.23;72.62;101573.66;10448258;28;20127;-73
2022/06/26 15:38:27;;;;;;;0.10;0.10;;;;;;;24.28;75.16;101582.78;10449105;28;20029;-73
2022/06/26 15:43:27;;;;;;;0.10;0.10;;;;;;;24.59;72.25;101581.72;10449281;28;20036;-73
2022/06/26 15:48:29;;;;;;;0.10;0.10;;;;;;;24.61;74.43;101571.41;10455132;28;20028;-73
2022/06/26 15:53:30;;;;;;;0.10;0.10;;;;;;;24.20;75.38;101574.94;10455345;28;20048;-73
2022/06/26 15:58:30;;;;;;;0.10;0.10;;;;;;;23.74;79.35;101573.69;10448505;28;20021;-73
2022/06/26 16:03:31;;;;;;;0.10;0.10;;;;;;;23.40;78.58;101567.78;10456012;28;20472;-73
2022/06/26 16:08:31;;;;;;;0.00;0.00;;;;;;;23.56;78.49;101576.38;10455645;28;20412;-71
2022/06/26 16:13:32;;;;;;;0.00;0.00;;;;;;;23.97;78.14;101566.69;10455894;28;20086;-74
2022/06/26 16:18:33;;;;;;;0.00;0.00;;;;;;;24.28;73.33;101563.72;10454223;28;20032;-73
2022/06/26 16:29:02;;;;;;;0.00;0.00;;;;;;;24.40;75.56;101580.94;10446944;28;20037;-73
2022/06/26 16:34:03;;;;;;;0.10;0.10;;;;;;;24.44;75.88;101577.78;10454424;28;20108;-74
2022/06/26 16:39:03;;;;;;;0.00;0.00;;;;;;;24.47;75.43;101569.16;10454993;28;20448;-71
2022/06/26 16:44:04;;;;;;;0.10;0.10;;;;;;;24.20;76.45;101563.22;10453637;28;20025;-73
2022/06/26 16:49:05;;;;;;;0.00;0.00;;;;;;;24.09;78.33;101570.31;10454789;28;20103;-74
2022/06/26 16:54:05;;;;;;;0.00;0.00;;;;;;;24.09;79.93;101578.47;10453543;28;20108;-72
2022/06/26 16:59:06;;;;;;;0.00;0.00;;;;;;;23.95;81.09;101585.97;10446180;28;20490;-73
2022/06/26 17:04:06;;;;;;;0.10;0.10;;;;;;;23.81;82.40;101588.03;10451864;28;20475;-72
2022/06/26 17:09:06;;;;;;;0.00;0.00;;;;;;;23.65;82.28;101583.16;10453658;28;20044;-73
2022/06/26 17:14:07;;;;;;;0.00;0.00;;;;;;;23.46;83.37;101574.22;10452850;28;20021;-72
2022/06/26 17:19:07;;;;;;;0.10;0.10;;;;;;;23.23;86.60;101570.25;10453743;28;20031;-72
2022/06/26 17:24:08;;;;;;;0.10;0.10;;;;;;;22.89;88.25;101574.31;10452077;28;20036;-72
2022/06/26 17:29:08;;;;;;;0.00;0.00;;;;;;;22.63;88.92;101579.97;10445074;28;20112;-72
2022/06/26 17:34:09;;;;;;;0.00;0.00;;;;;;;22.42;90.32;101586.63;10452032;28;20017;-72
2022/06/26 17:39:09;;;;;;;0.00;0.00;;;;;;;22.25;92.03;101583.59;10452623;28;20047;-73
2022/06/26 17:44:10;;;;;;;0.00;0.00;;;;;;;22.18;92.99;101602.63;10452494;28;20032;-72
2022/06/26 17:49:10;;;;;;;0.10;0.10;;;;;;;22.22;90.26;101605.72;10452239;28;20078;-72
2022/06/26 17:54:11;;;;;;;0.07;0.07;;;;;;;22.19;88.88;101609.72;10451380;28;20077;-72
2022/06/26 17:59:11;;;;;;;0.00;0.00;;;;;;;22.15;88.47;101609.28;10459468;28;20274;-73
2022/06/26 18:04:11;;;;;;;0.00;0.00;;;;;;;22.05;88.35;101611.66;10487128;28;20447;-72
2022/06/26 18:09:11;;;;;;;0.00;0.00;;;;;;;21.84;87.59;101614.66;10449436;28;20486;-72
2022/06/26 18:14:12;;;;;;;0.00;0.00;;;;;;;21.64;87.21;101603.88;10448654;28;20021;-72
2022/06/26 18:19:12;;;;;;;0.10;0.10;;;;;;;21.45;88.99;101601.00;10449522;28;20040;-73
2022/06/26 18:24:13;;;;;;;0.00;0.00;;;;;;;21.38;89.79;101610.19;10445534;28;20013;-73
2022/06/26 18:29:13;;;;;;;0.10;0.10;;;;;;;21.27;90.08;101613.53;10448640;28;20021;-72
2022/06/26 18:34:14;;;;;;;0.00;0.00;;;;;;;21.18;90.45;101610.22;10450864;22;20095;-72
2022/06/26 18:39:14;;;;;;;0.10;0.10;;;;;;;21.09;90.24;101609.59;10468022;28;20522;-72
2022/06/26 18:44:14;;;;;;;0.00;0.00;;;;;;;20.94;90.12;101600.84;10442574;28;20498;-73
2022/06/26 18:49:15;;;;;;;0.00;0.00;;;;;;;20.83;90.63;101594.19;10411275;28;20030;-73
2022/06/26 18:54:15;;;;;;;0.10;0.10;;;;;;;20.72;91.58;101586.69;10410566;28;20026;-73
2022/06/26 18:59:15;;;;;;;0.00;0.00;;;;;;;20.58;91.96;101588.56;10420914;28;20017;-73
2022/06/26 19:04:16;;;;;;;0.00;0.00;;;;;;;20.52;91.53;101597.47;10409905;28;20369;-73
2022/06/26 19:09:16;;;;;;;0.00;0.00;;;;;;;20.42;91.51;101595.19;10445387;28;20021;-74
2022/06/26 19:19:38;;;;;;;0.00;0.00;;;;;;;20.29;92.59;101598.66;10432042;28;20266;-72
2022/06/26 19:24:40;;;;;;;0.10;0.10;;;;;;;20.21;93.28;101606.97;10458431;28;20021;-72
2022/06/26 19:29:47;;;;;;;0.10;0.10;;;;;;;20.17;93.36;101611.13;10451939;28;20025;-72
2022/06/26 19:34:49;;;;;;;0.10;0.10;;;;;;;20.08;95.15;101602.38;10437359;28;20025;-72
2022/06/26 19:39:49;;;;;;;0.10;0.10;;;;;;;19.98;95.79;101601.91;10444445;28;20029;-72
2022/06/26 19:44:52;;;;;;;0.00;0.00;;;;;;;19.96;97.04;101595.88;10445224;28;20019;-72
2022/06/26 19:55:14;;;;;;;0.00;0.00;;;;;;;19.86;98.49;101601.66;10418131;28;20667;-73
2022/06/26 20:00:16;;;;;;;0.00;0.00;;;;;;;19.74;99.78;101605.97;10419540;28;20112;-72
2022/06/26 20:05:17;;;;;;;0.10;0.10;;;;;;;19.63;99.57;101612.78;10435119;28;20391;-72
2022/06/26 20:10:18;;;;;;;0.00;0.00;;;;;;;19.56;100.00;101621.84;10437674;28;20022;-72
2022/06/26 20:15:18;;;;;;;0.10;0.10;;;;;;;19.47;100.00;101631.16;10417651;28;20021;-74
2022/06/26 20:20:18;;;;;;;0.07;0.07;;;;;;;19.43;100.00;101626.16;10425587;28;20029;-72
2022/06/26 20:25:19;;;;;;;0.00;0.00;;;;;;;19.39;100.00;101624.03;10420902;28;20085;-72
2022/06/26 20:30:20;;;;;;;0.00;0.00;;;;;;;19.29;100.00;101619.00;10429182;28;20033;-72
2022/06/26 20:35:25;;;;;;;0.00;0.00;;;;;;;19.20;100.00;101620.19;10443304;28;20013;-72
2022/06/26 20:40:26;;;;;;;0.00;0.00;;;;;;;19.14;100.00;101605.59;10447088;28;20052;-72
2022/06/26 20:45:26;;;;;;;0.10;0.10;;;;;;;19.10;99.69;101611.56;10456065;28;20028;-72
2022/06/26 20:50:27;;;;;;;0.10;0.10;;;;;;;19.11;97.88;101618.63;10451408;28;20136;-72
2022/06/26 20:55:27;;;;;;;0.00;0.00;;;;;;;19.07;98.96;101614.69;10416140;28;20476;-72
2022/06/26 21:00:28;;;;;;;0.10;0.10;;;;;;;19.01;98.45;101602.78;10442538;28;20085;-72
2022/06/26 21:05:28;;;;;;;0.00;0.00;;;;;;;18.97;98.99;101609.63;10416734;28;20022;-72
2022/06/26 21:10:29;;;;;;;0.05;0.05;;;;;;;18.90;100.00;101608.72;10442638;28;20021;-72
2022/06/26 21:15:29;;;;;;;0.10;0.10;;;;;;;18.87;98.87;101604.53;10414121;28;20075;-72
2022/06/26 21:20:30;;;;;;;0.10;0.10;;;;;;;18.87;98.91;101598.31;10415572;28;20142;-72
2022/06/26 21:25:31;;;;;;;0.08;0.08;;;;;;;18.85;99.05;101614.72;10446243;28;20275;-73
2022/06/26 21:30:32;;;;;;;0.10;0.10;;;;;;;18.86;98.80;101612.84;10446068;28;20115;-72
2022/06/26 21:35:32;;;;;;;0.00;0.00;;;;;;;18.86;99.59;101605.59;10441454;28;20051;-72
2022/06/26 21:40:33;;;;;;;0.00;0.00;;;;;;;18.77;100.00;101601.34;10454917;28;20028;-72
2022/06/26 21:45:33;;;;;;;0.10;0.10;;;;;;;18.68;100.00;101594.41;10415765;28;20021;-72
2022/06/26 21:50:34;;;;;;;0.00;0.00;;;;;;;18.67;99.87;101592.72;10412624;28;20113;-72
2022/06/26 21:55:34;;;;;;;0.10;0.10;;;;;;;18.64;100.00;101580.44;10433812;28;20260;-72
2022/06/26 22:00:35;;;;;;;0.00;0.00;;;;;;;18.58;100.00;101575.81;10420116;28;20035;-73
2022/06/26 22:05:37;;;;;;;0.10;0.10;;;;;;;18.52;100.00;101569.34;10425935;28;20774;-72
2022/06/26 22:10:38;;;;;;;0.10;0.10;;;;;;;18.42;100.00;101563.44;10437214;28;20024;-73
2022/06/26 22:15:39;;;;;;;0.08;0.08;;;;;;;18.33;100.00;101548.41;10436911;28;20495;-73
2022/06/26 22:20:40;;;;;;;0.10;0.10;;;;;;;18.31;100.00;101547.78;10435460;28;20078;-73
2022/06/26 22:31:01;;;;;;;0.10;0.10;;;;;;;18.28;100.00;101521.19;10416593;28;20041;-72
2022/06/26 22:36:01;;;;;;;0.00;0.00;;;;;;;18.26;100.00;101515.16;10420616;28;20028;-72
2022/06/26 22:41:02;;;;;;;0.10;0.10;;;;;;;18.27;100.00;101516.84;10426696;28;20025;-73
2022/06/26 22:46:02;;;;;;;0.10;0.10;;;;;;;18.23;100.00;101499.34;10452853;28;20025;-73
2022/06/26 22:51:02;;;;;;;0.00;0.00;;;;;;;18.19;100.00;101501.59;10427405;28;20017;-72
2022/06/26 22:56:06;;;;;;;0.00;0.00;;;;;;;18.13;100.00;101491.59;10440974;28;20048;-73
2022/06/26 23:01:06;;;;;;;0.10;0.10;;;;;;;18.07;100.00;101498.59;10440413;28;20055;-72
2022/06/26 23:06:07;;;;;;;0.10;0.10;;;;;;;18.04;100.00;101501.69;10454637;28;20021;-73
2022/06/26 23:11:07;;;;;;;0.10;0.10;;;;;;;18.05;100.00;101491.72;10449005;28;20391;-73
2022/06/26 23:16:09;;;;;;;0.10;0.10;;;;;;;18.03;100.00;101477.59;10417018;28;20053;-73
2022/06/26 23:21:09;;;;;;;0.00;0.00;;;;;;;17.99;100.00;101455.59;10450754;28;20028;-73
2022/06/26 23:26:10;;;;;;;0.00;0.00;;;;;;;17.88;100.00;101438.06;10439118;28;20392;-72
2022/06/26 23:31:10;;;;;;;0.10;0.10;;;;;;;17.77;100.00;101440.41;10441802;28;20021;-73
2022/06/26 23:36:10;;;;;;;0.00;0.00;;;;;;;17.69;100.00;101435.97;10436864;28;20028;-73
2022/06/26 23:41:11;;;;;;;0.10;0.10;;;;;;;17.69;100.00;101433.28;10457796;28;20496;-73
2022/06/26 23:46:11;;;;;;;0.10;0.10;;;;;;;17.64;100.00;101428.47;10417239;28;20033;-72